createdAt,value
2023-05-01T00:00:38.022Z,5.25
2023-05-01T00:03:06.652Z,5.32
2023-05-01T00:05:34.976Z,5.26
2023-05-01T00:08:03.669Z,5.25
2023-05-01T00:10:32.169Z,5.36
2023-05-01T00:13:00.207Z,5.59
2023-05-01T00:15:28.179Z,5.68
2023-05-01T00:17:56.613Z,5.72
2023-05-01T00:20:31.504Z,5.73
2023-05-01T00:22:59.908Z,5.75
2023-05-01T00:25:29.083Z,5.68
2023-05-01T00:27:57.184Z,5.73
2023-05-01T00:30:26.033Z,5.71
2023-05-01T00:32:54.071Z,5.71
2023-05-01T00:35:22.068Z,5.57
2023-05-01T00:37:50.565Z,5.49
2023-05-01T00:40:18.597Z,5.31
2023-05-01T00:42:47.745Z,5.42
2023-05-01T00:45:17.536Z,5.59
2023-05-01T00:47:46.539Z,5.62
2023-05-01T00:50:15.163Z,5.57
2023-05-01T00:52:43.747Z,5.54
2023-05-01T00:55:12.790Z,5.70
2023-05-01T00:57:41.251Z,5.51
2023-05-01T01:00:12.732Z,5.45
2023-05-01T01:02:41.335Z,5.28
2023-05-01T01:05:09.862Z,5.19
2023-05-01T01:07:51.355Z,5.15
2023-05-01T01:10:44.160Z,5.10
2023-05-01T01:13:44.334Z,5.08
2023-05-01T01:16:43.903Z,5.07
2023-05-01T01:19:44.964Z,4.99
2023-05-01T01:22:20.789Z,4.94
2023-05-01T01:24:53.930Z,5.03
2023-05-01T01:27:59.253Z,4.98
2023-05-01T01:30:57.240Z,4.97
2023-05-01T01:33:49.677Z,4.92
2023-05-01T01:36:26.829Z,4.93
2023-05-01T01:39:15.119Z,4.95
2023-05-01T01:41:50.606Z,5.05
2023-05-01T01:44:40.018Z,5.00
2023-05-01T01:47:12.603Z,4.99
2023-05-01T01:49:47.043Z,5.07
2023-05-01T01:52:17.535Z,5.07
2023-05-01T01:55:20.967Z,5.05
2023-05-01T01:57:51.073Z,5.01
2023-05-01T02:00:21.056Z,5.10
2023-05-01T02:02:51.618Z,5.19
2023-05-01T02:05:21.807Z,5.26
2023-05-01T02:07:52.732Z,5.44
2023-05-01T02:10:23.603Z,5.39
2023-05-01T02:12:53.679Z,5.37
2023-05-01T02:15:21.899Z,5.46
2023-05-01T02:17:52.150Z,5.65
2023-05-01T02:20:21.998Z,5.63
2023-05-01T02:22:53.738Z,5.41
2023-05-01T02:25:22.577Z,5.53
2023-05-01T02:28:01.243Z,5.62
2023-05-01T02:30:29.960Z,5.71
2023-05-01T02:32:58.173Z,5.81
2023-05-01T02:35:26.659Z,5.72
2023-05-01T02:37:55.057Z,5.61
2023-05-01T02:40:23.289Z,5.64
2023-05-01T02:42:53.490Z,5.55
2023-05-01T02:45:25.711Z,5.52
2023-05-01T02:48:00.326Z,5.66
2023-05-01T02:50:30.073Z,5.64
2023-05-01T02:52:59.500Z,5.55
2023-05-01T02:55:28.637Z,5.45
2023-05-01T02:58:00.822Z,5.66
2023-05-01T03:00:29.032Z,5.66
2023-05-01T03:02:58.670Z,5.91
2023-05-01T03:05:27.213Z,6.01
2023-05-01T03:07:55.227Z,5.90
2023-05-01T03:10:24.286Z,6.10
2023-05-01T03:12:52.212Z,6.06
2023-05-01T03:15:20.152Z,6.12
2023-05-01T03:17:48.662Z,6.03
2023-05-01T03:20:16.744Z,6.27
2023-05-01T03:22:44.830Z,6.39
2023-05-01T03:25:13.562Z,6.24
2023-05-01T03:27:42.025Z,6.09
2023-05-01T03:30:10.949Z,6.09
2023-05-01T03:32:39.675Z,6.22
2023-05-01T03:35:08.732Z,6.19
2023-05-01T03:37:37.038Z,6.17
2023-05-01T03:40:06.037Z,6.18
2023-05-01T03:42:37.679Z,6.32
2023-05-01T03:45:07.995Z,6.17
2023-05-01T03:47:36.878Z,6.24
2023-05-01T03:50:07.278Z,6.24
2023-05-01T03:52:37.836Z,6.23
2023-05-01T03:55:06.548Z,6.44
2023-05-01T03:57:34.892Z,6.08
2023-05-01T04:00:05.861Z,6.00
2023-05-01T04:02:44.071Z,6.00
2023-05-01T04:05:13.750Z,6.03
2023-05-01T04:07:42.614Z,6.36
2023-05-01T04:10:11.039Z,6.21
2023-05-01T04:12:44.201Z,6.29
2023-05-01T04:15:14.191Z,6.29
2023-05-01T04:17:44.237Z,6.47
2023-05-01T04:20:12.784Z,6.42
2023-05-01T04:22:42.636Z,6.53
2023-05-01T04:25:11.199Z,6.59
2023-05-01T04:27:39.533Z,6.57
2023-05-01T04:30:08.204Z,6.25
2023-05-01T04:32:37.037Z,6.35
2023-05-01T04:35:05.341Z,6.22
2023-05-01T04:37:33.549Z,6.28
2023-05-01T04:40:02.499Z,6.42
2023-05-01T04:42:32.559Z,6.37
2023-05-01T04:45:04.924Z,6.71
2023-05-01T04:47:34.582Z,6.47
2023-05-01T04:50:02.602Z,6.58
2023-05-01T04:52:32.660Z,6.61
2023-05-01T04:55:01.517Z,6.37
2023-05-01T04:57:32.375Z,6.44
2023-05-01T05:00:01.340Z,6.43
2023-05-01T05:02:32.246Z,6.29
2023-05-01T05:05:13.442Z,6.35
2023-05-01T05:07:42.022Z,6.43
2023-05-01T05:10:24.597Z,6.66
2023-05-01T05:13:07.905Z,6.75
2023-05-01T05:15:49.715Z,6.87
2023-05-01T05:18:20.428Z,6.95
2023-05-01T05:21:05.424Z,6.84
2023-05-01T05:23:33.996Z,6.65
2023-05-01T05:26:02.082Z,6.84
2023-05-01T05:28:30.755Z,6.66
2023-05-01T05:30:59.321Z,6.74
2023-05-01T05:33:29.447Z,6.78
2023-05-01T05:36:12.017Z,7.10
2023-05-01T05:38:41.487Z,7.56
2023-05-01T05:41:09.839Z,7.25
2023-05-01T05:43:38.171Z,7.20
2023-05-01T05:46:08.024Z,7.51
2023-05-01T05:48:37.121Z,7.59
2023-05-01T05:51:06.315Z,7.67
2023-05-01T05:53:35.857Z,7.76
2023-05-01T05:56:05.135Z,7.76
2023-05-01T05:58:46.237Z,7.63
2023-05-01T06:01:15.594Z,7.02
2023-05-01T06:03:44.401Z,7.19
2023-05-01T06:06:14.454Z,7.60
2023-05-01T06:08:42.563Z,7.58
2023-05-01T06:11:11.585Z,7.65
2023-05-01T06:13:39.885Z,7.52
2023-05-01T06:16:08.718Z,7.47
2023-05-01T06:18:37.378Z,7.36
2023-05-01T06:21:06.486Z,7.80
2023-05-01T06:23:35.157Z,8.24
2023-05-01T06:26:05.995Z,8.35
2023-05-01T06:28:34.371Z,8.41
2023-05-01T06:31:03.897Z,8.44
2023-05-01T06:33:34.661Z,8.31
2023-05-01T06:36:03.344Z,8.51
2023-05-01T06:38:33.296Z,8.59
2023-05-01T06:41:01.811Z,8.82
2023-05-01T06:43:31.434Z,9.05
2023-05-01T06:45:59.550Z,8.78
2023-05-01T06:48:27.887Z,9.29
2023-05-01T06:50:56.743Z,9.30
2023-05-01T06:53:25.030Z,9.32
2023-05-01T06:55:53.613Z,8.87
2023-05-01T06:58:24.141Z,9.20
2023-05-01T07:00:54.537Z,9.58
2023-05-01T07:03:23.539Z,9.78
2023-05-01T07:05:51.800Z,9.24
2023-05-01T07:08:20.143Z,9.35
2023-05-01T07:10:50.514Z,8.92
2023-05-01T07:13:18.735Z,9.01
2023-05-01T07:15:47.132Z,9.82
2023-05-01T07:18:27.588Z,9.83
2023-05-01T07:20:55.967Z,9.05
2023-05-01T07:23:25.821Z,9.58
2023-05-01T07:25:54.011Z,9.85
2023-05-01T07:28:23.178Z,9.55
2023-05-01T07:30:51.781Z,9.05
2023-05-01T07:33:24.221Z,9.66
2023-05-01T07:35:53.814Z,9.84
2023-05-01T07:38:27.079Z,10.56
2023-05-01T07:40:58.063Z,10.88
2023-05-01T07:43:26.213Z,10.72
2023-05-01T07:46:01.138Z,11.07
2023-05-01T07:48:36.888Z,11.22
2023-05-01T07:51:06.697Z,10.86
2023-05-01T07:53:35.395Z,10.98
2023-05-01T07:56:12.372Z,10.60
2023-05-01T07:58:42.946Z,9.87
2023-05-01T08:01:11.368Z,10.07
2023-05-01T08:03:40.266Z,10.86
2023-05-01T08:06:08.514Z,10.88
2023-05-01T08:08:36.451Z,11.15
2023-05-01T08:11:05.203Z,10.82
2023-05-01T08:13:33.536Z,11.20
2023-05-01T08:16:05.938Z,10.49
2023-05-01T08:18:34.468Z,10.56
2023-05-01T08:21:02.880Z,10.32
2023-05-01T08:23:31.176Z,9.82
2023-05-01T08:25:59.814Z,9.59
2023-05-01T08:28:28.320Z,10.12
2023-05-01T08:30:57.846Z,10.20
2023-05-01T08:33:26.979Z,10.70
2023-05-01T08:35:55.361Z,10.03
2023-05-01T08:38:23.589Z,10.35
2023-05-01T08:40:54.869Z,10.22
2023-05-01T08:43:24.840Z,10.23
2023-05-01T08:45:56.574Z,10.40
2023-05-01T08:48:27.558Z,10.08
2023-05-01T08:51:00.588Z,9.86
2023-05-01T08:53:33.906Z,11.13
2023-05-01T08:56:08.558Z,10.79
2023-05-01T08:58:38.396Z,11.71
2023-05-01T09:01:08.098Z,11.04
2023-05-01T09:03:37.907Z,10.87
2023-05-01T09:06:08.441Z,11.15
2023-05-01T09:08:36.919Z,11.47
2023-05-01T09:11:05.342Z,12.24
2023-05-01T09:13:34.515Z,12.65
2023-05-01T09:16:03.022Z,11.74
2023-05-01T09:18:31.836Z,11.50
2023-05-01T09:21:00.913Z,11.87
2023-05-01T09:23:29.565Z,12.48
2023-05-01T09:25:58.285Z,12.00
2023-05-01T09:29:00.113Z,12.37
2023-05-01T09:31:30.539Z,12.93
2023-05-01T09:34:04.710Z,12.54
2023-05-01T09:36:35.271Z,11.37
2023-05-01T09:39:04.639Z,12.21
2023-05-01T09:41:33.863Z,12.29
2023-05-01T09:44:05.712Z,13.10
2023-05-01T09:46:44.276Z,13.11
2023-05-01T09:49:46.782Z,13.02
2023-05-01T09:52:15.721Z,13.43
2023-05-01T09:54:44.789Z,12.31
2023-05-01T09:57:13.044Z,12.07
2023-05-01T09:59:41.152Z,12.58
2023-05-01T10:02:35.980Z,12.01
2023-05-01T10:05:05.047Z,11.98
2023-05-01T10:07:33.718Z,12.80
2023-05-01T10:10:23.495Z,12.54
2023-05-01T10:13:10.691Z,12.34
2023-05-01T10:15:39.000Z,13.27
2023-05-01T10:18:10.683Z,12.66
2023-05-01T10:20:38.907Z,12.47
2023-05-01T10:23:08.397Z,12.43
2023-05-01T10:25:38.639Z,13.10
2023-05-01T10:28:07.985Z,12.10
2023-05-01T10:30:38.857Z,13.33
2023-05-01T10:33:07.286Z,12.65
2023-05-01T10:35:39.723Z,12.85
2023-05-01T10:38:34.799Z,12.12
2023-05-01T10:41:04.489Z,12.91
2023-05-01T10:43:33.418Z,12.13
2023-05-01T10:46:20.499Z,12.78
2023-05-01T10:48:56.803Z,11.73
2023-05-01T10:51:28.329Z,12.15
2023-05-01T10:54:35.480Z,12.31
2023-05-01T10:57:04.489Z,11.91
2023-05-01T11:00:02.074Z,11.88
2023-05-01T11:02:32.871Z,11.23
2023-05-01T11:05:13.209Z,12.05
2023-05-01T11:07:41.612Z,12.19
2023-05-01T11:10:39.156Z,12.70
2023-05-01T11:13:07.908Z,12.82
2023-05-01T11:15:48.580Z,13.25
2023-05-01T11:18:16.974Z,12.55
2023-05-01T11:20:52.116Z,12.46
2023-05-01T11:23:20.911Z,13.03
2023-05-01T11:26:01.704Z,13.63
2023-05-01T11:28:31.482Z,12.82
2023-05-01T11:31:00.767Z,12.59
2023-05-01T11:33:29.565Z,13.07
2023-05-01T11:36:02.635Z,13.29
2023-05-01T11:38:31.381Z,12.80
2023-05-01T11:41:01.977Z,12.03
2023-05-01T11:43:31.441Z,11.91
2023-05-01T11:46:03.839Z,12.39
2023-05-01T11:48:33.089Z,12.26
2023-05-01T11:51:01.890Z,12.95
2023-05-01T11:53:30.428Z,12.87
2023-05-01T11:56:19.535Z,11.97
2023-05-01T11:59:00.290Z,11.83
2023-05-01T12:01:37.603Z,11.29
2023-05-01T12:04:11.383Z,11.57
2023-05-01T12:06:54.100Z,11.71
2023-05-01T12:09:27.162Z,12.07
2023-05-01T12:11:56.213Z,11.72
2023-05-01T12:14:24.816Z,11.01
2023-05-01T12:16:53.719Z,11.20
2023-05-01T12:19:23.979Z,11.49
2023-05-01T12:22:11.961Z,11.00
2023-05-01T12:24:52.765Z,10.75
2023-05-01T12:27:21.896Z,10.66
2023-05-01T12:29:50.117Z,10.61
2023-05-01T12:32:18.754Z,10.79
2023-05-01T12:34:48.813Z,9.97
2023-05-01T12:37:18.344Z,10.02
2023-05-01T12:39:46.499Z,9.86
2023-05-01T12:42:17.331Z,10.05
2023-05-01T12:44:59.676Z,9.58
2023-05-01T12:47:38.184Z,10.01
2023-05-01T12:50:07.834Z,9.06
2023-05-01T12:52:36.450Z,9.22
2023-05-01T12:55:06.734Z,9.19
2023-05-01T12:57:35.474Z,9.55
2023-05-01T13:00:05.959Z,10.03
2023-05-01T13:02:35.461Z,9.32
2023-05-01T13:05:13.514Z,9.63
2023-05-01T13:07:50.088Z,9.55
2023-05-01T13:10:31.683Z,9.08
2023-05-01T13:13:01.464Z,10.23
2023-05-01T13:15:29.795Z,9.37
2023-05-01T13:18:05.725Z,9.57
2023-05-01T13:20:34.299Z,9.12
2023-05-01T13:23:12.091Z,9.32
2023-05-01T13:25:40.720Z,8.78
2023-05-01T13:28:09.795Z,8.92
2023-05-01T13:30:38.885Z,8.46
2023-05-01T13:33:11.752Z,8.65
2023-05-01T13:35:40.969Z,8.33
2023-05-01T13:38:13.329Z,8.34
2023-05-01T13:40:42.218Z,9.01
2023-05-01T13:43:18.419Z,9.01
2023-05-01T13:46:00.807Z,8.52
2023-05-01T13:48:32.312Z,8.49
2023-05-01T13:51:01.098Z,8.50
2023-05-01T13:53:31.011Z,8.08
2023-05-01T13:55:59.644Z,7.94
2023-05-01T13:58:30.590Z,8.07
2023-05-01T14:00:59.121Z,7.87
2023-05-01T14:03:40.819Z,7.86
2023-05-01T14:06:20.688Z,8.20
2023-05-01T14:08:51.418Z,7.74
2023-05-01T14:11:20.606Z,8.51
2023-05-01T14:13:51.504Z,7.50
2023-05-01T14:16:26.152Z,7.61
2023-05-01T14:18:57.693Z,8.06
2023-05-01T14:21:30.603Z,7.58
2023-05-01T14:23:58.679Z,7.28
2023-05-01T14:26:27.821Z,7.33
2023-05-01T14:28:56.220Z,7.61
2023-05-01T14:31:31.673Z,6.77
2023-05-01T14:34:06.777Z,7.16
2023-05-01T14:36:47.154Z,6.88
2023-05-01T14:39:18.925Z,6.68
2023-05-01T14:41:49.137Z,6.26
2023-05-01T14:44:21.180Z,6.22
2023-05-01T14:46:52.756Z,6.35
2023-05-01T14:49:27.384Z,6.18
2023-05-01T14:51:55.731Z,6.49
2023-05-01T14:54:24.320Z,6.00
2023-05-01T14:56:52.848Z,6.01
2023-05-01T14:59:23.129Z,5.69
2023-05-01T15:01:51.686Z,5.92
2023-05-01T15:04:20.189Z,5.58
2023-05-01T15:06:48.295Z,5.84
2023-05-01T15:09:18.256Z,5.87
2023-05-01T15:11:46.569Z,5.90
2023-05-01T15:14:14.965Z,5.61
2023-05-01T15:16:43.707Z,6.56
2023-05-01T15:19:11.929Z,5.72
2023-05-01T15:21:40.184Z,5.88
2023-05-01T15:24:09.025Z,5.78
2023-05-01T15:26:37.130Z,5.75
2023-05-01T15:29:05.000Z,5.54
2023-05-01T15:31:33.533Z,6.19
2023-05-01T15:34:02.029Z,6.26
2023-05-01T15:36:30.682Z,6.57
2023-05-01T15:38:59.156Z,6.06
2023-05-01T15:41:27.157Z,6.85
2023-05-01T15:43:55.015Z,6.66
2023-05-01T15:46:25.920Z,6.41
2023-05-01T15:48:54.021Z,6.24
2023-05-01T15:51:22.124Z,6.10
2023-05-01T15:54:04.222Z,5.93
2023-05-01T15:56:37.027Z,6.89
2023-05-01T15:59:08.950Z,6.50
2023-05-01T16:01:38.069Z,5.99
2023-05-01T16:04:06.799Z,6.13
2023-05-01T16:06:35.781Z,6.07
2023-05-01T16:09:05.504Z,6.33
2023-05-01T16:11:34.141Z,5.84
2023-05-01T16:14:14.297Z,5.77
2023-05-01T16:16:43.639Z,5.72
2023-05-01T16:19:19.862Z,5.72
2023-05-01T16:22:04.556Z,6.28
2023-05-01T16:24:36.963Z,5.78
2023-05-01T16:27:05.786Z,5.44
2023-05-01T16:29:35.536Z,5.71
2023-05-01T16:32:18.009Z,5.46
2023-05-01T16:34:46.701Z,5.51
2023-05-01T16:37:16.219Z,5.52
2023-05-01T16:39:44.380Z,5.39
2023-05-01T16:42:13.772Z,5.53
2023-05-01T16:44:54.714Z,5.08
2023-05-01T16:47:23.761Z,4.98
2023-05-01T16:49:56.031Z,5.09
2023-05-01T16:52:24.445Z,4.92
2023-05-01T16:54:54.815Z,4.89
2023-05-01T16:57:22.903Z,4.92
2023-05-01T16:59:51.964Z,5.01
2023-05-01T17:02:20.895Z,4.87
2023-05-01T17:04:49.278Z,4.80
2023-05-01T17:07:18.030Z,4.83
2023-05-01T17:09:46.681Z,4.85
2023-05-01T17:12:28.125Z,4.76
2023-05-01T17:14:57.282Z,4.72
2023-05-01T17:17:37.395Z,4.76
2023-05-01T17:20:07.470Z,4.75
2023-05-01T17:22:36.406Z,4.78
2023-05-01T17:25:04.988Z,4.82
2023-05-01T17:27:33.813Z,4.69
2023-05-01T17:30:02.291Z,4.76
2023-05-01T17:32:37.048Z,4.67
2023-05-01T17:35:06.837Z,4.90
2023-05-01T17:37:35.165Z,5.11
2023-05-01T17:40:04.392Z,5.13
2023-05-01T17:42:33.282Z,5.22
2023-05-01T17:45:01.549Z,5.03
2023-05-01T17:47:32.437Z,5.14
2023-05-01T17:50:01.261Z,5.12
2023-05-01T17:52:31.874Z,5.08
2023-05-01T17:55:01.166Z,4.94
2023-05-01T17:57:31.412Z,4.76
2023-05-01T18:00:00.375Z,4.85
2023-05-01T18:02:33.690Z,5.69
2023-05-01T18:05:02.712Z,5.28
2023-05-01T18:07:33.101Z,5.27
2023-05-01T18:10:02.042Z,5.22
2023-05-01T18:12:35.026Z,4.98
2023-05-01T18:15:04.134Z,5.31
2023-05-01T18:17:46.247Z,5.44
2023-05-01T18:20:15.201Z,5.19
2023-05-01T18:22:43.487Z,5.69
2023-05-01T18:25:11.730Z,5.58
2023-05-01T18:27:42.025Z,5.22
2023-05-01T18:30:10.639Z,5.45
2023-05-01T18:32:47.773Z,5.41
2023-05-01T18:35:19.189Z,5.62
2023-05-01T18:37:47.497Z,5.30
2023-05-01T18:40:15.515Z,5.93
2023-05-01T18:42:44.218Z,5.69
2023-05-01T18:45:13.349Z,5.43
2023-05-01T18:47:42.061Z,5.48
2023-05-01T18:50:11.907Z,5.68
2023-05-01T18:52:42.300Z,5.74
2023-05-01T18:55:11.995Z,5.42
2023-05-01T18:57:44.703Z,5.98
2023-05-01T19:00:18.469Z,6.03
2023-05-01T19:02:52.229Z,5.31
2023-05-01T19:05:22.857Z,5.20
2023-05-01T19:07:51.464Z,5.38
2023-05-01T19:10:19.532Z,5.57
2023-05-01T19:12:49.646Z,5.21
2023-05-01T19:15:18.272Z,5.00
2023-05-01T19:17:46.550Z,5.32
2023-05-01T19:20:17.776Z,5.38
2023-05-01T19:22:45.938Z,5.75
2023-05-01T19:25:14.546Z,6.01
2023-05-01T19:27:42.926Z,5.99
2023-05-01T19:30:17.728Z,5.67
2023-05-01T19:32:49.402Z,5.58
2023-05-01T19:35:17.665Z,5.49
2023-05-01T19:37:48.164Z,5.12
2023-05-01T19:40:21.642Z,5.09
2023-05-01T19:42:52.165Z,4.76
2023-05-01T19:45:20.744Z,5.42
2023-05-01T19:47:48.883Z,5.32
2023-05-01T19:50:20.036Z,4.99
2023-05-01T19:52:48.529Z,5.11
2023-05-01T19:55:17.406Z,4.97
2023-05-01T19:57:45.515Z,4.74
2023-05-01T20:00:14.733Z,4.96
2023-05-01T20:02:43.240Z,5.01
2023-05-01T20:05:13.423Z,4.90
2023-05-01T20:07:41.616Z,4.98
2023-05-01T20:10:10.375Z,4.82
2023-05-01T20:12:38.699Z,4.94
2023-05-01T20:15:07.244Z,5.12
2023-05-01T20:17:35.721Z,5.23
2023-05-01T20:20:04.108Z,5.31
2023-05-01T20:22:32.262Z,5.41
2023-05-01T20:25:00.661Z,5.23
2023-05-01T20:27:31.580Z,5.16
2023-05-01T20:30:00.032Z,5.25
2023-05-01T20:32:31.979Z,4.84
2023-05-01T20:35:08.218Z,4.50
2023-05-01T20:37:48.946Z,4.40
2023-05-01T20:40:19.485Z,4.55
2023-05-01T20:42:48.336Z,4.39
2023-05-01T20:45:16.554Z,4.62
2023-05-01T20:47:44.535Z,4.48
2023-05-01T20:52:58.732Z,4.34
2023-05-01T20:55:28.450Z,4.29
2023-05-01T20:57:56.485Z,4.19
2023-05-01T21:00:24.425Z,4.43
2023-05-01T21:02:53.321Z,4.48
2023-05-01T21:05:21.535Z,4.46
2023-05-01T21:07:49.427Z,4.54
2023-05-01T21:10:17.963Z,4.49
2023-05-01T21:12:46.088Z,4.27
2023-05-01T21:15:14.138Z,4.44
2023-05-01T21:17:43.645Z,4.35
2023-05-01T21:20:16.833Z,4.48
2023-05-01T21:22:46.052Z,4.41
2023-05-01T21:25:20.147Z,4.67
2023-05-01T21:27:48.617Z,4.42
2023-05-01T21:30:29.022Z,4.53
2023-05-01T21:32:58.684Z,4.57
2023-05-01T21:35:28.304Z,4.45
2023-05-01T21:37:56.747Z,4.57
2023-05-01T21:40:25.959Z,4.42
2023-05-01T21:42:55.078Z,4.35
2023-05-01T21:45:23.469Z,4.24
2023-05-01T21:47:52.460Z,4.17
2023-05-01T21:50:21.676Z,4.27
2023-05-01T21:52:50.805Z,4.10
2023-05-01T21:55:23.513Z,4.04
2023-05-01T21:57:51.891Z,4.14
2023-05-01T22:00:21.466Z,3.98
2023-05-01T22:02:51.355Z,3.93
2023-05-01T22:05:22.951Z,3.83
2023-05-01T22:07:58.056Z,3.84
2023-05-01T22:10:26.127Z,3.93
2023-05-01T22:12:54.412Z,3.45
2023-05-01T22:15:22.501Z,3.36
2023-05-01T22:17:50.580Z,3.26
2023-05-01T22:20:19.218Z,3.25
2023-05-01T22:22:47.370Z,3.06
2023-05-01T22:25:16.382Z,2.88
2023-05-01T22:27:44.857Z,2.73
2023-05-01T22:30:13.198Z,2.62
2023-05-01T22:32:41.306Z,2.54
2023-05-01T22:35:09.941Z,2.63
2023-05-01T22:37:37.939Z,2.51
2023-05-01T22:40:06.801Z,2.51
2023-05-01T22:42:35.093Z,2.42
2023-05-01T22:45:03.207Z,2.45
2023-05-01T22:47:35.406Z,2.52
2023-05-01T22:50:03.715Z,2.47
2023-05-01T22:52:32.504Z,2.66
2023-05-01T22:55:00.685Z,2.47
2023-05-01T22:57:31.651Z,2.19
2023-05-01T22:59:59.876Z,2.06
2023-05-01T23:02:29.451Z,2.09
2023-05-01T23:04:57.521Z,2.17
2023-05-01T23:07:25.604Z,2.17
2023-05-01T23:09:54.105Z,2.50
2023-05-01T23:12:26.153Z,2.25
2023-05-01T23:14:55.685Z,2.52
2023-05-01T23:17:23.748Z,2.21
2023-05-01T23:19:51.633Z,2.28
2023-05-01T23:22:20.276Z,2.26
2023-05-01T23:24:49.552Z,2.26
2023-05-01T23:27:18.741Z,2.45
2023-05-01T23:29:57.190Z,2.39
2023-05-01T23:32:28.205Z,2.07
2023-05-01T23:35:03.352Z,2.12
2023-05-01T23:37:32.528Z,2.37
2023-05-01T23:40:02.468Z,2.30
2023-05-01T23:42:32.389Z,2.29
2023-05-01T23:45:00.768Z,2.08
2023-05-01T23:47:32.795Z,2.15
2023-05-01T23:50:01.844Z,1.87
2023-05-01T23:52:31.404Z,1.94
2023-05-01T23:54:59.413Z,1.87
2023-05-01T23:57:27.830Z,1.59
2023-05-01T23:59:55.887Z,1.72
